Time;durP1;ratioP1;P1;durP2;ratioP2;P2;SDS_P1;SDS_P2;PMS_P1;PMS_P2;Temp;Humidity;BMP_temperature;BMP_pressure;BME280_temperature;BME280_humidity;BME280_pressure;Samples;Min_cycle;Max_cycle;Signal;HPM_P1;HPM_P2
2021/03/24 05:02:33;;;;;;;35.13;22.07;;;0.70;99.90;;;;;;5114529;22;20856;-74
2021/03/24 05:05:04;;;;;;;34.63;20.73;;;0.70;99.90;;;;;;5054559;28;20435;-75
2021/03/24 05:07:36;;;;;;;33.43;20.77;;;0.80;99.90;;;;;;5054468;28;20431;-75
2021/03/24 05:10:06;;;;;;;31.63;20.50;;;0.70;99.90;;;;;;5055450;28;20490;-75
2021/03/24 05:12:40;;;;;;;34.47;20.70;;;0.70;99.90;;;;;;5054777;28;20477;-74
2021/03/24 05:15:14;;;;;;;35.20;21.83;;;0.70;99.90;;;;;;5054286;28;20434;-74
2021/03/24 05:17:43;;;;;;;31.67;21.27;;;0.70;99.90;;;;;;5054448;28;20435;-73
2021/03/24 05:20:15;;;;;;;32.13;21.27;;;0.80;99.90;;;;;;5054141;28;20461;-75
2021/03/24 05:22:44;;;;;;;36.30;22.80;;;0.70;99.90;;;;;;5053847;28;20440;-76
2021/03/24 05:25:19;;;;;;;32.37;21.63;;;0.70;99.90;;;;;;5053986;28;20512;-73
2021/03/24 05:27:49;;;;;;;35.47;21.63;;;0.70;99.90;;;;;;5054228;28;20446;-74
2021/03/24 05:30:22;;;;;;;31.70;21.80;;;0.60;99.90;;;;;;5053938;28;20439;-73
2021/03/24 05:32:55;;;;;;;37.33;23.60;;;0.60;99.90;;;;;;5053764;28;20451;-73
2021/03/24 05:35:28;;;;;;;37.40;22.10;;;0.60;99.90;;;;;;5053895;28;20443;-73
2021/03/24 05:38:01;;;;;;;38.40;22.50;;;0.60;99.90;;;;;;5053611;28;20516;-74
2021/03/24 05:40:44;;;;;;;33.87;22.83;;;0.60;99.90;;;;;;5053816;28;20794;-73
2021/03/24 05:43:23;;;;;;;37.10;22.43;;;0.60;99.90;;;;;;5054718;28;20458;-74
2021/03/24 05:45:58;;;;;;;35.50;22.60;;;0.70;99.90;;;;;;5053714;28;20436;-74
2021/03/24 05:48:44;;;;;;;38.37;22.50;;;0.80;99.90;;;;;;5053514;28;20435;-74
2021/03/24 05:51:20;;;;;;;31.90;22.03;;;0.80;99.90;;;;;;5053317;28;20481;-73
2021/03/24 05:54:02;;;;;;;36.17;21.97;;;0.90;99.90;;;;;;5053619;28;20491;-73
2021/03/24 05:56:37;;;;;;;29.60;20.97;;;1.00;99.90;;;;;;5053631;28;20443;-73
2021/03/24 05:59:16;;;;;;;34.70;23.23;;;1.00;99.90;;;;;;5054351;28;20818;-73
2021/03/24 06:01:48;;;;;;;32.40;22.17;;;1.00;99.90;;;;;;5053479;28;20486;-73
2021/03/24 06:04:31;;;;;;;36.57;22.60;;;1.10;99.90;;;;;;5053702;28;20793;-73
2021/03/24 06:07:40;;;;;;;34.07;21.80;;;1.10;99.90;;;;;;5053787;28;20549;-73
2021/03/24 06:10:45;;;;;;;31.33;22.20;;;1.20;99.90;;;;;;5057277;28;20910;-74
2021/03/24 06:13:37;;;;;;;36.13;22.33;;;1.30;99.90;;;;;;5057739;28;20540;-74
2021/03/24 06:16:35;;;;;;;33.07;22.00;;;1.40;99.90;;;;;;5059001;28;20439;-73
2021/03/24 06:19:11;;;;;;;32.40;20.67;;;1.50;99.90;;;;;;5062931;28;20455;-71
2021/03/24 06:21:45;;;;;;;30.27;22.10;;;1.50;99.90;;;;;;5057517;28;20532;-71
2021/03/24 06:24:27;;;;;;;31.43;21.23;;;1.60;99.90;;;;;;5057234;28;21035;-72
2021/03/24 06:27:08;;;;;;;24.80;19.03;;;2.10;99.90;;;;;;5058427;28;20443;-71
2021/03/24 06:29:51;;;;;;;24.00;18.43;;;2.70;99.90;;;;;;5058510;28;20443;-72
2021/03/24 06:32:40;;;;;;;21.47;17.17;;;3.70;99.90;;;;;;5058074;28;20513;-72
2021/03/24 06:35:37;;;;;;;23.23;16.40;;;4.60;99.90;;;;;;5057859;28;20427;-71
2021/03/24 06:38:42;;;;;;;21.33;17.60;;;5.30;99.90;;;;;;5057903;28;20438;-73
2021/03/24 06:41:21;;;;;;;25.27;17.77;;;6.00;99.90;;;;;;5046445;28;20553;-72
2021/03/24 06:44:01;;;;;;;21.83;17.17;;;6.40;99.90;;;;;;5057916;28;20501;-73
2021/03/24 06:46:34;;;;;;;23.83;18.40;;;6.90;99.90;;;;;;5057458;28;20435;-73
2021/03/24 06:49:16;;;;;;;21.30;16.57;;;7.30;99.90;;;;;;5058939;28;20442;-74
2021/03/24 06:52:22;;;;;;;23.70;17.50;;;7.50;99.90;;;;;;5059999;28;20513;-72
2021/03/24 06:55:24;;;;;;;21.37;17.23;;;8.10;99.90;;;;;;5058126;28;20570;-74
2021/03/24 06:58:35;;;;;;;21.17;18.40;;;8.30;99.90;;;;;;5058303;28;20442;-73
2021/03/24 07:01:34;;;;;;;25.03;18.53;;;8.20;99.90;;;;;;5057697;28;20497;-74
2021/03/24 07:04:33;;;;;;;20.40;17.50;;;8.40;99.90;;;;;;5057932;28;20792;-72
2021/03/24 07:07:22;;;;;;;20.33;17.33;;;9.00;99.90;;;;;;5057597;28;20438;-73
2021/03/24 07:09:56;;;;;;;23.40;17.67;;;9.40;99.90;;;;;;5057949;28;20431;-73
2021/03/24 07:12:32;;;;;;;19.90;16.40;;;9.80;99.90;;;;;;5057465;28;20478;-73
2021/03/24 07:15:24;;;;;;;20.70;17.80;;;10.30;99.90;;;;;;5057446;28;20459;-72
2021/03/24 07:18:31;;;;;;;19.70;16.33;;;10.60;99.90;;;;;;5056805;28;20435;-73
2021/03/24 07:21:10;;;;;;;21.27;18.10;;;11.00;99.90;;;;;;4975114;28;20482;-73
2021/03/24 07:24:12;;;;;;;20.17;17.30;;;11.30;99.90;;;;;;5045135;28;20454;-74
2021/03/24 07:27:13;;;;;;;19.60;17.60;;;11.90;99.90;;;;;;5057177;28;20799;-72
2021/03/24 07:30:07;;;;;;;19.43;17.53;;;12.80;99.90;;;;;;5057091;28;20434;-72
2021/03/24 07:32:42;;;;;;;18.77;16.83;;;13.00;97.80;;;;;;5056459;28;20463;-70
2021/03/24 07:35:25;;;;;;;19.67;17.60;;;13.50;95.60;;;;;;5058582;28;20970;-71
2021/03/24 07:38:22;;;;;;;20.07;18.00;;;13.50;94.50;;;;;;5058212;28;20432;-72
2021/03/24 07:41:42;;;;;;;21.33;18.50;;;13.20;93.50;;;;;;5040540;28;20479;-71
2021/03/24 07:44:19;;;;;;;20.20;18.00;;;13.00;93.10;;;;;;5030068;28;20821;-72
2021/03/24 07:47:27;;;;;;;27.30;19.77;;;13.20;93.40;;;;;;5060488;28;20439;-72
2021/03/24 07:50:04;;;;;;;20.37;18.33;;;13.10;94.00;;;;;;5052834;28;20439;-73
2021/03/24 07:53:05;;;;;;;20.23;18.17;;;13.40;94.50;;;;;;5056495;28;20470;-72
2021/03/24 07:55:40;;;;;;;20.67;18.50;;;14.00;92.70;;;;;;5040870;28;20945;-72
2021/03/24 07:58:25;;;;;;;21.70;18.93;;;14.50;91.10;;;;;;5056826;28;20801;-72
2021/03/24 08:00:59;;;;;;;21.03;18.00;;;14.30;90.90;;;;;;5055805;28;20832;-70
2021/03/24 08:03:32;;;;;;;20.80;18.70;;;15.10;96.60;;;;;;5079404;22;20431;-66
2021/03/24 08:06:18;;;;;;;20.77;18.43;;;15.40;93.70;;;;;;5062104;28;20816;-67
2021/03/24 08:09:04;;;;;;;20.60;18.60;;;16.00;90.80;;;;;;5060122;28;20455;-67
2021/03/24 08:11:36;;;;;;;21.73;19.53;;;16.60;86.40;;;;;;5056424;28;20461;-66
2021/03/24 08:14:33;;;;;;;22.60;19.73;;;16.80;81.50;;;;;;5055500;28;20510;-66
2021/03/24 08:17:05;;;;;;;20.70;18.60;;;15.30;82.10;;;;;;5055482;28;20439;-66
2021/03/24 08:19:51;;;;;;;21.50;19.30;;;14.90;85.90;;;;;;5055283;28;20440;-65
2021/03/24 08:22:39;;;;;;;20.57;18.40;;;15.20;85.60;;;;;;5054939;28;20436;-66
2021/03/24 08:25:21;;;;;;;22.63;19.47;;;14.70;85.90;;;;;;5054958;28;20467;-65
2021/03/24 08:27:53;;;;;;;20.47;17.83;;;15.10;87.20;;;;;;5055523;28;20469;-66
2021/03/24 08:30:23;;;;;;;21.77;19.53;;;15.10;88.70;;;;;;5055196;28;20428;-66
2021/03/24 08:33:28;;;;;;;21.53;19.23;;;15.80;86.70;;;;;;5054822;28;20785;-67
2021/03/24 08:36:28;;;;;;;21.27;18.97;;;16.60;83.90;;;;;;5055072;28;20493;-67
2021/03/24 08:39:34;;;;;;;22.57;19.40;;;17.00;82.20;;;;;;5055032;28;20485;-67
2021/03/24 08:42:30;;;;;;;24.63;19.70;;;17.10;78.40;;;;;;5054914;28;20435;-67
2021/03/24 08:45:01;;;;;;;24.67;19.20;;;17.20;78.40;;;;;;5054546;28;20471;-67
2021/03/24 08:47:32;;;;;;;20.53;18.40;;;17.90;79.20;;;;;;5054640;28;20439;-66
2021/03/24 08:50:01;;;;;;;20.20;18.07;;;18.60;78.50;;;;;;5054630;28;20492;-68
2021/03/24 08:52:36;;;;;;;21.17;19.03;;;19.40;74.90;;;;;;5054289;28;20435;-68
2021/03/24 08:55:26;;;;;;;21.50;19.50;;;19.80;70.80;;;;;;5054280;28;20485;-68
2021/03/24 08:58:22;;;;;;;20.33;18.33;;;18.90;69.10;;;;;;5054063;28;20447;-67
2021/03/24 09:00:58;;;;;;;21.07;18.90;;;19.10;68.10;;;;;;5054458;28;20435;-68
2021/03/24 09:03:59;;;;;;;19.87;17.73;;;19.90;67.70;;;;;;5054094;28;20442;-67
2021/03/24 09:06:36;;;;;;;20.90;18.80;;;20.30;65.20;;;;;;5039084;28;20447;-68
2021/03/24 09:09:18;;;;;;;23.97;20.07;;;20.00;64.30;;;;;;5054124;28;20978;-66
2021/03/24 09:11:55;;;;;;;20.40;18.30;;;19.10;62.00;;;;;;5054378;28;20846;-67
2021/03/24 09:14:29;;;;;;;20.43;18.50;;;19.60;63.80;;;;;;5053771;28;20988;-66
2021/03/24 09:17:24;;;;;;;20.03;18.03;;;19.80;63.20;;;;;;5054068;28;20436;-67
2021/03/24 09:20:23;;;;;;;21.73;19.50;;;20.30;61.20;;;;;;5053970;28;20435;-67
2021/03/24 09:23:24;;;;;;;20.60;18.60;;;20.30;62.20;;;;;;5028179;28;20937;-66
2021/03/24 09:26:05;;;;;;;21.20;19.10;;;20.20;58.70;;;;;;5053532;28;20906;-66
2021/03/24 09:28:52;;;;;;;19.53;17.60;;;18.20;63.60;;;;;;5053625;28;20448;-67
2021/03/24 09:31:45;;;;;;;23.77;18.80;;;18.90;63.20;;;;;;5053831;28;20556;-66
2021/03/24 09:34:22;;;;;;;22.33;19.57;;;19.90;66.00;;;;;;5053766;28;20478;-68
2021/03/24 09:36:58;;;;;;;25.97;20.67;;;20.90;59.90;;;;;;5053483;28;20799;-66
2021/03/24 09:39:33;;;;;;;21.63;18.90;;;20.40;58.40;;;;;;5053950;28;20431;-67
2021/03/24 09:42:08;;;;;;;20.97;18.90;;;19.80;59.30;;;;;;5053813;28;20434;-67
2021/03/24 09:44:40;;;;;;;19.47;17.57;;;20.70;60.20;;;;;;5053372;28;20467;-67
2021/03/24 09:47:21;;;;;;;19.50;17.50;;;21.50;57.80;;;;;;5053871;28;20462;-67
2021/03/24 09:49:56;;;;;;;19.13;17.20;;;22.30;55.40;;;;;;5054538;28;20435;-68
2021/03/24 09:52:29;;;;;;;18.47;16.77;;;22.20;55.90;;;;;;5053953;28;20439;-67
2021/03/24 09:55:14;;;;;;;19.77;17.77;;;21.60;56.60;;;;;;5053468;28;20532;-67
2021/03/24 09:58:24;;;;;;;19.90;17.87;;;22.00;56.20;;;;;;5053834;28;20436;-68
2021/03/24 10:01:10;;;;;;;22.67;16.03;;;22.70;55.50;;;;;;5054050;28;20443;-67
2021/03/24 10:03:42;;;;;;;19.57;17.53;;;22.60;53.30;;;;;;5053303;28;20474;-68
2021/03/24 10:06:19;;;;;;;18.20;16.50;;;22.70;55.00;;;;;;5053851;28;20439;-67
2021/03/24 10:08:47;;;;;;;17.43;15.73;;;23.30;52.10;;;;;;5053416;28;20470;-68
2021/03/24 10:11:21;;;;;;;17.67;15.77;;;22.80;52.80;;;;;;5053323;28;20455;-68
2021/03/24 10:13:55;;;;;;;18.40;16.60;;;23.60;52.20;;;;;;5053164;28;20486;-66
2021/03/24 10:16:28;;;;;;;18.27;16.53;;;23.80;54.80;;;;;;5053456;28;20489;-67
2021/03/24 10:19:02;;;;;;;19.17;17.33;;;24.50;54.30;;;;;;5055228;28;20465;-67
2021/03/24 10:21:39;;;;;;;19.47;17.77;;;24.20;50.90;;;;;;5068618;28;20534;-67
2021/03/24 10:24:13;;;;;;;20.30;18.53;;;24.20;52.90;;;;;;5067157;28;20466;-68
2021/03/24 10:26:47;;;;;;;20.53;18.53;;;24.70;51.80;;;;;;5054508;28;20430;-69
2021/03/24 10:29:18;;;;;;;19.13;17.33;;;24.20;52.20;;;;;;5054191;28;20435;-68
2021/03/24 10:31:48;;;;;;;19.70;17.90;;;24.20;51.40;;;;;;5053228;28;20497;-68
2021/03/24 10:34:18;;;;;;;19.40;17.47;;;23.80;51.70;;;;;;5053506;28;20510;-68
2021/03/24 10:36:52;;;;;;;17.20;15.23;;;23.70;51.20;;;;;;5053245;28;20848;-68
2021/03/24 10:39:22;;;;;;;17.23;15.53;;;22.40;51.10;;;;;;5053346;28;20435;-68
2021/03/24 10:41:57;;;;;;;19.73;17.33;;;23.00;52.00;;;;;;5053833;28;20439;-67
2021/03/24 10:44:38;;;;;;;18.53;16.57;;;22.50;54.10;;;;;;5052883;28;20466;-62
2021/03/24 10:47:20;;;;;;;18.27;16.33;;;21.70;54.00;;;;;;5053225;28;20435;-63
2021/03/24 10:50:00;;;;;;;16.43;15.03;;;21.70;52.30;;;;;;5053206;28;20443;-63
2021/03/24 10:52:34;;;;;;;17.00;15.30;;;22.20;51.10;;;;;;5053159;28;20439;-63
2021/03/24 10:55:06;;;;;;;16.20;14.60;;;21.60;51.70;;;;;;5052813;28;21046;-63
2021/03/24 10:57:42;;;;;;;17.90;16.30;;;22.50;53.20;;;;;;5057050;28;20435;-63
2021/03/24 11:00:17;;;;;;;16.87;15.27;;;22.50;54.40;;;;;;5056976;28;20439;-65
2021/03/24 11:02:52;;;;;;;19.10;17.20;;;21.90;56.00;;;;;;5056690;28;20438;-66
2021/03/24 11:05:24;;;;;;;18.00;16.20;;;21.90;52.00;;;;;;5056059;28;20473;-65
2021/03/24 11:07:56;;;;;;;21.07;16.70;;;21.70;52.80;;;;;;5056587;28;20435;-65
2021/03/24 11:10:47;;;;;;;18.10;16.20;;;20.90;53.80;;;;;;5056751;28;20458;-66
2021/03/24 11:13:22;;;;;;;19.00;17.13;;;20.30;55.90;;;;;;5056494;28;20477;-66
2021/03/24 11:16:09;;;;;;;19.33;17.30;;;20.30;57.20;;;;;;5056608;28;20446;-65
2021/03/24 11:18:40;;;;;;;19.73;17.07;;;20.30;56.10;;;;;;5055941;28;20905;-65
2021/03/24 11:21:20;;;;;;;17.33;15.10;;;19.70;56.50;;;;;;5057509;28;20515;-66
2021/03/24 11:23:51;;;;;;;18.43;15.13;;;18.90;57.90;;;;;;5056252;28;20466;-66
2021/03/24 11:26:41;;;;;;;16.37;14.80;;;18.80;58.70;;;;;;5055977;28;20439;-65
2021/03/24 11:29:12;;;;;;;17.90;15.30;;;18.80;59.30;;;;;;5056371;28;20442;-65
2021/03/24 11:32:00;;;;;;;18.47;16.43;;;18.30;58.70;;;;;;5056326;28;20469;-65
2021/03/24 11:34:37;;;;;;;19.90;16.50;;;17.30;63.10;;;;;;5056886;28;20483;-65
2021/03/24 11:37:16;;;;;;;18.40;16.50;;;17.20;65.40;;;;;;5067262;28;20485;-66
2021/03/24 11:39:48;;;;;;;22.13;17.90;;;17.30;65.40;;;;;;5062930;28;20493;-65
2021/03/24 11:42:17;;;;;;;19.57;17.67;;;17.00;67.80;;;;;;5059236;28;20435;-64
2021/03/24 11:44:46;;;;;;;19.53;17.47;;;17.30;68.00;;;;;;5055881;28;20810;-64
2021/03/24 11:47:23;;;;;;;19.90;17.90;;;17.60;71.10;;;;;;5056411;28;20451;-65
2021/03/24 11:49:56;;;;;;;18.13;16.23;;;17.60;72.50;;;;;;5056067;28;20435;-66
2021/03/24 11:52:39;;;;;;;20.00;17.80;;;17.80;69.60;;;;;;5055832;28;20442;-65
2021/03/24 11:55:29;;;;;;;16.97;15.27;;;17.50;69.70;;;;;;5055347;28;20478;-65
2021/03/24 11:58:07;;;;;;;17.13;14.70;;;17.90;69.20;;;;;;5055800;28;20439;-65
2021/03/24 12:00:45;;;;;;;19.93;15.10;;;18.00;62.10;;;;;;5055681;28;20446;-64
2021/03/24 12:03:36;;;;;;;18.20;16.20;;;17.30;64.80;;;;;;5054929;28;20921;-66
2021/03/24 12:06:12;;;;;;;19.93;15.30;;;17.30;67.50;;;;;;5055271;28;20988;-66
2021/03/24 12:08:46;;;;;;;22.03;16.27;;;16.70;68.40;;;;;;5055606;28;20800;-66
2021/03/24 12:11:22;;;;;;;16.03;14.33;;;17.10;70.10;;;;;;5055323;28;20435;-66
2021/03/24 12:13:49;;;;;;;17.43;15.67;;;17.40;69.10;;;;;;5055241;28;20482;-65
2021/03/24 12:16:17;;;;;;;18.07;16.27;;;17.50;70.70;;;;;;5055341;28;20455;-64
2021/03/24 12:18:47;;;;;;;18.23;16.20;;;17.20;71.40;;;;;;5054966;28;20793;-65
2021/03/24 12:21:25;;;;;;;16.60;15.10;;;17.50;71.50;;;;;;5055120;28;20455;-64
2021/03/24 12:23:54;;;;;;;16.30;13.50;;;17.80;67.30;;;;;;5055123;28;20467;-65
2021/03/24 12:26:24;;;;;;;15.93;13.97;;;17.70;60.60;;;;;;5055044;28;20455;-65
2021/03/24 12:28:50;;;;;;;16.10;14.57;;;17.70;63.50;;;;;;5055548;28;20458;-66
2021/03/24 12:31:19;;;;;;;19.07;16.13;;;17.50;62.90;;;;;;5054742;28;20477;-65
2021/03/24 12:33:51;;;;;;;16.30;14.70;;;17.00;64.60;;;;;;5055034;28;20479;-65
2021/03/24 12:36:21;;;;;;;18.53;16.83;;;17.30;64.90;;;;;;5054909;28;20442;-65
2021/03/24 12:38:53;;;;;;;20.47;17.17;;;17.00;66.00;;;;;;5054983;28;20435;-65
2021/03/24 12:41:32;;;;;;;19.17;17.23;;;17.20;67.60;;;;;;5054762;28;20439;-65
2021/03/24 12:44:22;;;;;;;21.47;17.00;;;17.20;68.00;;;;;;5054881;28;20463;-65
2021/03/24 12:46:55;;;;;;;18.90;17.00;;;17.40;73.20;;;;;;5050618;28;20455;-65
2021/03/24 12:49:27;;;;;;;19.97;17.80;;;17.50;68.60;;;;;;5054804;28;20525;-65
2021/03/24 12:52:12;;;;;;;19.47;17.13;;;17.50;71.50;;;;;;5054618;28;20443;-66
2021/03/24 12:54:38;;;;;;;17.40;15.80;;;17.40;69.80;;;;;;5054276;28;20482;-66
2021/03/24 12:57:29;;;;;;;21.93;18.00;;;17.60;72.40;;;;;;5054333;28;20455;-64
2021/03/24 13:00:24;;;;;;;18.60;16.67;;;17.70;71.30;;;;;;5054581;28;20431;-64
2021/03/24 13:03:31;;;;;;;19.90;15.33;;;17.60;79.40;;;;;;5060256;28;20532;-64
2021/03/24 13:06:14;;;;;;;21.30;16.83;;;17.70;72.70;;;;;;5060293;28;20442;-65
2021/03/24 13:08:49;;;;;;;19.57;17.57;;;17.80;71.40;;;;;;5055605;28;20435;-65
2021/03/24 13:11:25;;;;;;;17.97;16.20;;;17.50;71.40;;;;;;5054235;28;20431;-65
2021/03/24 13:13:59;;;;;;;20.90;16.90;;;17.80;72.40;;;;;;5054238;28;20490;-65
2021/03/24 13:16:33;;;;;;;20.60;17.73;;;17.60;69.40;;;;;;5054283;28;20865;-65
2021/03/24 13:19:06;;;;;;;18.90;17.00;;;17.40;67.70;;;;;;5053189;28;20434;-67
2021/03/24 13:21:42;;;;;;;17.90;14.50;;;17.30;67.20;;;;;;5054588;28;20447;-66
2021/03/24 13:24:20;;;;;;;14.43;12.93;;;17.30;66.60;;;;;;5054248;28;20806;-65
2021/03/24 13:26:48;;;;;;;17.33;13.93;;;17.20;64.50;;;;;;5054648;28;20442;-66
2021/03/24 13:29:20;;;;;;;17.43;14.13;;;16.90;66.40;;;;;;5055050;28;20451;-65
2021/03/24 13:31:52;;;;;;;13.70;12.30;;;17.10;66.30;;;;;;5060564;28;20524;-65
2021/03/24 13:34:41;;;;;;;13.93;12.50;;;17.50;70.50;;;;;;5055523;28;20485;-65
2021/03/24 13:37:14;;;;;;;13.73;12.33;;;17.50;65.90;;;;;;5054821;28;20440;-66
2021/03/24 13:39:46;;;;;;;13.87;12.57;;;17.40;67.30;;;;;;5054027;28;20763;-66
2021/03/24 13:42:30;;;;;;;17.90;12.80;;;17.50;65.50;;;;;;5053895;28;20443;-65
2021/03/24 13:45:01;;;;;;;16.07;12.10;;;17.40;64.50;;;;;;5053746;28;20625;-66
2021/03/24 13:47:33;;;;;;;11.10;10.00;;;17.60;66.60;;;;;;5054152;28;20444;-66
2021/03/24 13:50:05;;;;;;;11.10;10.00;;;17.70;62.10;;;;;;5053788;28;20446;-66
2021/03/24 13:52:47;;;;;;;12.83;11.00;;;18.00;66.20;;;;;;5053844;28;20440;-66
2021/03/24 13:55:52;;;;;;;11.73;10.23;;;18.40;62.90;;;;;;5053369;28;20490;-65
2021/03/24 13:58:51;;;;;;;11.27;9.77;;;18.20;58.90;;;;;;5053740;28;20458;-65
2021/03/24 14:01:21;;;;;;;10.90;9.80;;;17.80;58.60;;;;;;5053833;28;20451;-64
2021/03/24 14:03:59;;;;;;;13.63;10.40;;;17.90;59.20;;;;;;5059880;28;20482;-63
2021/03/24 14:06:34;;;;;;;12.20;10.80;;;18.20;64.00;;;;;;5064620;28;20884;-63
2021/03/24 14:09:10;;;;;;;15.30;10.33;;;18.40;61.20;;;;;;5061100;28;20439;-64
2021/03/24 14:12:09;;;;;;;14.23;11.53;;;18.60;60.80;;;;;;5055461;28;20443;-63
2021/03/24 14:14:48;;;;;;;11.60;10.40;;;18.30;63.30;;;;;;5053998;28;20969;-63
2021/03/24 14:17:21;;;;;;;13.17;10.30;;;18.60;65.10;;;;;;5053797;28;20471;-63
2021/03/24 14:19:55;;;;;;;14.53;10.00;;;18.50;58.70;;;;;;5053387;28;20444;-65
2021/03/24 14:22:28;;;;;;;10.40;9.50;;;18.50;59.90;;;;;;5054387;28;20458;-65
2021/03/24 14:25:20;;;;;;;13.70;10.00;;;18.40;62.50;;;;;;5069593;28;20471;-65
2021/03/24 14:27:58;;;;;;;10.20;9.20;;;18.40;67.20;;;;;;5048983;28;20450;-65
2021/03/24 14:30:31;;;;;;;10.67;9.63;;;18.70;70.10;;;;;;5055857;28;20438;-65
2021/03/24 14:33:08;;;;;;;11.10;10.00;;;18.60;62.80;;;;;;5059759;28;20917;-65
2021/03/24 14:35:45;;;;;;;9.73;8.80;;;18.40;62.40;;;;;;5063013;28;20482;-65
2021/03/24 14:38:38;;;;;;;10.70;9.27;;;18.80;66.30;;;;;;5061344;28;20439;-65
2021/03/24 14:41:13;;;;;;;10.40;9.50;;;19.00;60.10;;;;;;5054213;28;20451;-65
2021/03/24 14:43:55;;;;;;;9.53;8.73;;;18.90;60.50;;;;;;5057131;28;20868;-65
2021/03/24 14:46:32;;;;;;;14.57;9.73;;;18.90;61.10;;;;;;5057105;28;20436;-65
2021/03/24 14:49:06;;;;;;;11.63;9.13;;;18.70;60.60;;;;;;5057033;28;20442;-65
2021/03/24 14:51:38;;;;;;;11.70;8.40;;;18.80;61.70;;;;;;5056882;28;20535;-66
2021/03/24 14:54:23;;;;;;;11.83;10.20;;;19.10;61.10;;;;;;5056574;28;20575;-66
2021/03/24 14:57:09;;;;;;;7.77;7.07;;;18.90;58.30;;;;;;5056886;28;20442;-65
2021/03/24 14:59:38;;;;;;;8.57;7.70;;;18.80;62.50;;;;;;5056851;28;20461;-66
2021/03/24 15:02:32;;;;;;;10.53;8.00;;;18.50;58.30;;;;;;5056602;28;20455;-66
2021/03/24 15:05:14;;;;;;;9.23;7.90;;;18.60;56.30;;;;;;5056272;28;20578;-65
2021/03/24 15:07:42;;;;;;;9.13;8.23;;;18.50;58.80;;;;;;5056466;28;20504;-65
2021/03/24 15:10:21;;;;;;;8.70;7.83;;;18.70;57.90;;;;;;5059311;28;20576;-67
2021/03/24 15:12:53;;;;;;;8.10;7.30;;;18.70;61.90;;;;;;5061295;28;20454;-68
2021/03/24 15:15:38;;;;;;;11.77;7.90;;;18.70;57.50;;;;;;5059237;28;20482;-66
2021/03/24 15:18:14;;;;;;;10.13;7.10;;;18.10;58.40;;;;;;5059159;28;20851;-66
2021/03/24 15:20:43;;;;;;;9.20;7.70;;;18.20;60.50;;;;;;5060448;28;20439;-67
2021/03/24 15:23:26;;;;;;;16.63;8.83;;;18.20;58.80;;;;;;5058278;28;20478;-67
2021/03/24 15:25:58;;;;;;;8.50;7.80;;;18.30;58.20;;;;;;5056752;28;20833;-67
2021/03/24 15:28:41;;;;;;;9.93;8.97;;;18.20;60.20;;;;;;5056408;28;20435;-67
2021/03/24 15:31:27;;;;;;;16.83;13.80;;;18.10;59.80;;;;;;5056398;28;20531;-67
2021/03/24 15:33:58;;;;;;;14.13;10.60;;;18.40;61.50;;;;;;5055271;28;20479;-67
2021/03/24 15:36:37;;;;;;;10.70;9.40;;;18.60;59.10;;;;;;5056076;28;20470;-67
2021/03/24 15:39:17;;;;;;;17.60;15.00;;;18.60;58.70;;;;;;5055683;28;20910;-67
2021/03/24 15:41:51;;;;;;;13.07;11.70;;;18.60;62.20;;;;;;5055442;28;20446;-68
2021/03/24 15:44:32;;;;;;;12.93;11.53;;;18.60;60.30;;;;;;5056348;28;20520;-66
2021/03/24 15:47:01;;;;;;;17.50;12.73;;;18.50;60.80;;;;;;5056020;28;20439;-67
2021/03/24 15:49:58;;;;;;;14.37;12.97;;;18.40;61.00;;;;;;5055615;28;20505;-67
2021/03/24 15:52:30;;;;;;;12.17;10.87;;;18.00;63.80;;;;;;5055566;28;20874;-66
2021/03/24 15:55:00;;;;;;;12.80;10.67;;;17.90;62.00;;;;;;5055533;28;20478;-66
2021/03/24 15:57:45;;;;;;;19.20;12.60;;;17.90;61.40;;;;;;5056459;28;20454;-66
2021/03/24 16:00:18;;;;;;;14.20;11.70;;;17.80;61.70;;;;;;5055423;28;20450;-67
2021/03/24 16:02:57;;;;;;;17.07;11.47;;;17.60;63.00;;;;;;5056103;28;20440;-66
2021/03/24 16:05:35;;;;;;;14.47;12.97;;;17.60;63.90;;;;;;5055219;28;20471;-65
2021/03/24 16:08:25;;;;;;;18.43;10.30;;;17.70;65.20;;;;;;5055895;28;20435;-67
2021/03/24 16:11:09;;;;;;;10.30;9.00;;;17.20;61.50;;;;;;5055940;28;20439;-66
2021/03/24 16:13:44;;;;;;;15.90;10.50;;;17.10;62.80;;;;;;5055902;28;20478;-66
2021/03/24 16:16:17;;;;;;;11.70;10.50;;;17.20;61.40;;;;;;5055341;28;20431;-62
2021/03/24 16:19:07;;;;;;;10.80;9.70;;;17.10;60.90;;;;;;5055507;28;20435;-63
2021/03/24 16:21:43;;;;;;;12.20;10.97;;;17.10;64.30;;;;;;5055382;28;20435;-63
2021/03/24 16:24:18;;;;;;;13.20;10.27;;;16.90;61.10;;;;;;5055384;28;20824;-66
2021/03/24 16:27:13;;;;;;;12.73;9.90;;;16.70;61.90;;;;;;5055155;28;20901;-66
2021/03/24 16:29:48;;;;;;;16.03;10.30;;;16.70;62.90;;;;;;5055203;28;20858;-66
2021/03/24 16:32:50;;;;;;;14.50;10.50;;;16.50;62.50;;;;;;5055582;28;20434;-66
2021/03/24 16:35:48;;;;;;;11.83;10.53;;;16.40;61.50;;;;;;5055014;28;20893;-67
2021/03/24 16:38:59;;;;;;;10.10;9.10;;;16.20;64.30;;;;;;5055270;28;20451;-66
2021/03/24 16:41:43;;;;;;;11.43;8.90;;;16.10;65.50;;;;;;4993852;28;20449;-68
2021/03/24 16:44:34;;;;;;;12.03;10.37;;;16.00;64.70;;;;;;5053785;28;20506;-67
2021/03/24 16:47:37;;;;;;;11.03;9.47;;;16.00;63.80;;;;;;5055604;28;20764;-67
2021/03/24 16:50:59;;;;;;;11.67;9.90;;;16.00;65.70;;;;;;5054843;28;20439;-67
2021/03/24 16:53:37;;;;;;;11.67;10.47;;;15.90;66.50;;;;;;4992105;28;20456;-68
2021/03/24 16:56:15;;;;;;;11.60;9.93;;;15.80;66.20;;;;;;5054695;28;20463;-68
2021/03/24 16:58:48;;;;;;;10.40;9.30;;;15.70;65.80;;;;;;5056465;28;20442;-67
2021/03/24 17:01:24;;;;;;;10.27;8.63;;;15.60;68.60;;;;;;5054959;28;20568;-67
2021/03/24 17:04:02;;;;;;;18.67;9.77;;;15.60;67.30;;;;;;5054103;28;20953;-68
2021/03/24 17:06:33;;;;;;;9.90;8.70;;;15.60;66.90;;;;;;5054050;28;20435;-68
2021/03/24 17:09:12;;;;;;;11.20;8.40;;;15.50;67.60;;;;;;5054419;28;20448;-68
2021/03/24 17:12:08;;;;;;;8.87;7.57;;;15.40;68.40;;;;;;5054086;28;20462;-67
2021/03/24 17:14:49;;;;;;;10.93;8.57;;;15.40;70.80;;;;;;5053172;28;20853;-68
2021/03/24 17:17:31;;;;;;;9.33;7.67;;;15.30;70.20;;;;;;5054183;28;20435;-68
2021/03/24 17:20:05;;;;;;;9.13;7.83;;;15.20;70.30;;;;;;5054152;28;20440;-68
2021/03/24 17:22:37;;;;;;;12.73;9.63;;;15.10;69.80;;;;;;5054768;28;20797;-67
2021/03/24 17:25:21;;;;;;;11.63;9.50;;;15.00;75.70;;;;;;5053995;28;20475;-67
2021/03/24 17:27:49;;;;;;;11.37;10.00;;;15.00;76.10;;;;;;5053658;28;20436;-67
2021/03/24 17:30:21;;;;;;;14.63;9.60;;;14.90;78.40;;;;;;5054344;28;20491;-68
2021/03/24 17:32:51;;;;;;;14.43;9.70;;;14.70;77.70;;;;;;5053781;28;20435;-66
2021/03/24 17:35:20;;;;;;;10.63;8.70;;;14.60;76.70;;;;;;5053666;28;20475;-67
2021/03/24 17:37:57;;;;;;;12.07;8.70;;;14.50;75.00;;;;;;5053751;28;20457;-66
2021/03/24 17:40:40;;;;;;;13.73;11.27;;;14.50;75.20;;;;;;5054126;28;20435;-67
2021/03/24 17:43:18;;;;;;;11.90;9.70;;;14.40;75.30;;;;;;5054178;28;20436;-67
2021/03/24 17:45:47;;;;;;;11.63;9.30;;;14.40;75.40;;;;;;5053273;28;20920;-66
2021/03/24 17:48:22;;;;;;;9.10;8.20;;;14.30;76.90;;;;;;5053291;28;20451;-66
2021/03/24 17:51:03;;;;;;;14.80;9.53;;;14.20;77.90;;;;;;5053401;28;20450;-66
2021/03/24 17:53:41;;;;;;;13.87;9.77;;;14.10;78.30;;;;;;5054018;28;20442;-65
2021/03/24 17:56:13;;;;;;;13.13;9.73;;;14.00;77.20;;;;;;5053359;28;20458;-67
2021/03/24 17:58:59;;;;;;;15.10;9.40;;;13.90;76.60;;;;;;5053909;28;20439;-65
2021/03/24 18:01:31;;;;;;;12.27;9.00;;;13.80;83.30;;;;;;5054397;28;20443;-62
2021/03/24 18:04:15;;;;;;;11.33;10.13;;;13.60;85.90;;;;;;5059786;28;20494;-63
2021/03/24 18:06:44;;;;;;;25.97;13.83;;;13.50;90.00;;;;;;5066213;28;20443;-63
2021/03/24 18:09:16;;;;;;;15.93;11.20;;;13.50;89.40;;;;;;5064429;28;20459;-64
2021/03/24 18:11:46;;;;;;;19.37;14.10;;;13.40;88.80;;;;;;5055929;28;20545;-62
2021/03/24 18:14:27;;;;;;;17.30;13.57;;;13.20;88.40;;;;;;5053817;28;20977;-61
2021/03/24 18:16:58;;;;;;;23.23;17.50;;;13.10;90.30;;;;;;5054094;28;20450;-63
2021/03/24 18:19:53;;;;;;;23.93;18.40;;;13.10;88.80;;;;;;5055880;28;20442;-63
2021/03/24 18:22:27;;;;;;;24.07;17.17;;;13.00;89.10;;;;;;5020958;28;20469;-63
2021/03/24 18:25:11;;;;;;;15.17;13.13;;;13.00;87.70;;;;;;5055804;28;20530;-64
2021/03/24 18:27:39;;;;;;;17.27;14.87;;;12.90;87.30;;;;;;5055313;28;20438;-64
2021/03/24 18:30:16;;;;;;;16.07;13.50;;;12.90;87.90;;;;;;5053834;28;20934;-68
2021/03/24 18:32:44;;;;;;;19.50;13.90;;;12.80;88.60;;;;;;5053928;28;20936;-67
2021/03/24 18:35:17;;;;;;;16.37;12.70;;;12.70;89.40;;;;;;5054233;28;20486;-70
2021/03/24 18:37:44;;;;;;;17.10;14.00;;;12.60;90.80;;;;;;5054721;28;20471;-68